Time;durP1;ratioP1;P1;durP2;ratioP2;P2;SDS_P1;SDS_P2;PMS_P1;PMS_P2;Temp;Humidity;BMP_temperature;BMP_pressure;BME280_temperature;BME280_humidity;BME280_pressure;Samples;Min_cycle;Max_cycle;Signal;HPM_P1;HPM_P2
2021/01/04 00:01:06;;;;;;;1.60;1.50;;;2.60;98.20;;;;;;5031066;28;20508;-76
2021/01/04 00:03:54;;;;;;;1.67;1.40;;;2.60;98.20;;;;;;5025825;28;20483;-78
2021/01/04 00:07:11;;;;;;;1.70;1.50;;;2.60;98.20;;;;;;5030439;28;20499;-79
2021/01/04 00:10:02;;;;;;;1.80;1.70;;;2.60;98.20;;;;;;4966992;28;20510;-79
2021/01/04 00:12:35;;;;;;;1.60;1.40;;;2.60;98.20;;;;;;4968046;28;20501;-79
2021/01/04 00:15:09;;;;;;;1.70;1.50;;;2.60;98.20;;;;;;5014243;28;20544;-77
2021/01/04 00:18:03;;;;;;;1.70;1.50;;;2.60;98.20;;;;;;5029049;28;20483;-78
2021/01/04 00:20:38;;;;;;;1.70;1.50;;;2.50;98.20;;;;;;5031706;28;20571;-80
2021/01/04 00:23:19;;;;;;;1.60;1.43;;;2.50;98.20;;;;;;5035092;28;20466;-79
2021/01/04 00:25:50;;;;;;;1.60;1.40;;;2.50;98.20;;;;;;5035294;28;20491;-76
2021/01/04 00:28:21;;;;;;;1.63;1.50;;;2.60;98.20;;;;;;5033440;28;20547;-78
2021/01/04 00:30:53;;;;;;;1.70;1.50;;;2.50;98.20;;;;;;5032861;28;20479;-79
2021/01/04 00:33:24;;;;;;;1.70;1.43;;;2.50;98.20;;;;;;5033465;28;20506;-79
2021/01/04 00:35:52;;;;;;;1.70;1.50;;;2.50;98.20;;;;;;5033155;28;20480;-79
2021/01/04 00:38:46;;;;;;;1.70;1.60;;;2.50;98.20;;;;;;5033515;28;20583;-79
2021/01/04 00:41:21;;;;;;;1.70;1.50;;;2.50;98.20;;;;;;5033410;28;20487;-79
2021/01/04 00:43:50;;;;;;;1.60;1.40;;;2.50;98.20;;;;;;5035273;28;20489;-78
2021/01/04 00:46:21;;;;;;;1.70;1.53;;;2.50;98.20;;;;;;5032919;28;20498;-79
2021/01/04 00:48:59;;;;;;;1.63;1.40;;;2.50;98.20;;;;;;5032979;28;21073;-78
2021/01/04 00:51:43;;;;;;;1.60;1.40;;;2.40;98.20;;;;;;5038637;28;20490;-79
2021/01/04 00:54:32;;;;;;;1.67;1.50;;;2.40;98.20;;;;;;5029377;28;20491;-79
2021/01/04 00:57:17;;;;;;;1.70;1.50;;;2.50;98.20;;;;;;5030876;28;20483;-78
2021/01/04 00:59:55;;;;;;;1.67;1.50;;;2.50;98.20;;;;;;5034821;28;20571;-78
2021/01/04 01:02:48;;;;;;;1.70;1.50;;;2.40;98.20;;;;;;5033630;28;20499;-79
2021/01/04 01:05:18;;;;;;;1.63;1.50;;;2.50;98.20;;;;;;5028040;28;20492;-78
2021/01/04 01:08:14;;;;;;;1.70;1.40;;;2.50;98.20;;;;;;5034974;28;20566;-79
2021/01/04 01:10:43;;;;;;;1.70;1.60;;;2.50;98.20;;;;;;5032543;28;20551;-78
2021/01/04 01:13:35;;;;;;;1.80;1.70;;;2.50;98.20;;;;;;5032061;28;20553;-78
2021/01/04 01:16:16;;;;;;;1.70;1.40;;;2.50;98.20;;;;;;5020057;28;20499;-78
2021/01/04 01:18:58;;;;;;;1.60;1.40;;;2.50;98.20;;;;;;5030611;28;20495;-78
2021/01/04 01:21:25;;;;;;;1.70;1.60;;;2.50;98.20;;;;;;5033366;28;20495;-79
2021/01/04 01:23:52;;;;;;;1.60;1.30;;;2.50;98.20;;;;;;5031299;28;20550;-79
2021/01/04 01:26:39;;;;;;;1.70;1.50;;;2.50;98.20;;;;;;5035379;28;20452;-78
2021/01/04 01:29:28;;;;;;;1.70;1.50;;;2.50;98.20;;;;;;5032506;28;20483;-78
2021/01/04 01:32:19;;;;;;;1.70;1.50;;;2.50;98.20;;;;;;5036126;28;20491;-77
2021/01/04 01:35:07;;;;;;;1.67;1.50;;;2.50;98.20;;;;;;5001021;28;20467;-76
2021/01/04 01:38:10;;;;;;;1.60;1.50;;;2.50;98.20;;;;;;5035736;28;21145;-78
2021/01/04 01:41:00;;;;;;;1.60;1.40;;;2.50;98.20;;;;;;5031096;28;20522;-79
2021/01/04 01:43:48;;;;;;;1.70;1.60;;;2.50;98.20;;;;;;5032881;28;20967;-78
2021/01/04 01:46:21;;;;;;;1.70;1.50;;;2.50;98.20;;;;;;5033854;28;20492;-76
2021/01/04 01:49:07;;;;;;;1.70;1.50;;;2.50;98.20;;;;;;5035284;28;20468;-77
2021/01/04 01:52:02;;;;;;;1.60;1.40;;;2.50;98.20;;;;;;5036856;28;20499;-79
2021/01/04 01:54:51;;;;;;;1.70;1.50;;;2.50;98.20;;;;;;5041676;28;20545;-78
2021/01/04 01:57:45;;;;;;;1.63;1.50;;;2.50;98.20;;;;;;5029016;28;20492;-79
2021/01/04 02:00:18;;;;;;;1.70;1.50;;;2.50;98.20;;;;;;5023969;28;21167;-77
2021/01/04 02:02:55;;;;;;;1.67;1.43;;;2.50;98.20;;;;;;5034213;28;20467;-79
2021/01/04 02:05:35;;;;;;;1.63;1.40;;;2.50;98.20;;;;;;5035260;28;21096;-77
2021/01/04 02:08:07;;;;;;;1.60;1.43;;;2.50;98.20;;;;;;5023722;28;20471;-77
2021/01/04 02:10:37;;;;;;;1.70;1.60;;;2.50;98.20;;;;;;5020296;28;20532;-80
2021/01/04 02:13:11;;;;;;;1.70;1.57;;;2.50;98.20;;;;;;5033684;28;20495;-79
2021/01/04 02:15:52;;;;;;;1.63;1.50;;;2.50;98.20;;;;;;5030631;28;20487;-79
2021/01/04 02:18:34;;;;;;;1.67;1.40;;;2.50;98.20;;;;;;5033877;28;20997;-79
2021/01/04 02:21:49;;;;;;;1.70;1.50;;;2.50;98.20;;;;;;5048217;28;20507;-79
2021/01/04 02:24:21;;;;;;;1.67;1.50;;;2.40;98.20;;;;;;5032211;28;20962;-80
2021/01/04 02:26:53;;;;;;;1.70;1.50;;;2.40;98.20;;;;;;5033809;28;20459;-79
2021/01/04 02:29:21;;;;;;;1.70;1.60;;;2.40;98.20;;;;;;5035694;28;20480;-79
2021/01/04 02:31:50;;;;;;;1.70;1.50;;;2.40;98.20;;;;;;5029347;28;20983;-79
2021/01/04 02:34:21;;;;;;;1.63;1.40;;;2.40;98.20;;;;;;5030996;28;20456;-79
2021/01/04 02:36:53;;;;;;;1.60;1.40;;;2.40;98.20;;;;;;5030040;28;20478;-79
2021/01/04 02:39:23;;;;;;;1.70;1.50;;;2.40;98.20;;;;;;5035363;28;20579;-79
2021/01/04 02:42:02;;;;;;;1.60;1.40;;;2.40;98.20;;;;;;5032269;28;20471;-79
2021/01/04 02:44:29;;;;;;;1.70;1.57;;;2.40;98.20;;;;;;5029793;28;20459;-79
2021/01/04 02:47:09;;;;;;;1.67;1.40;;;2.40;98.20;;;;;;5031532;28;20483;-79
2021/01/04 02:49:46;;;;;;;1.70;1.60;;;2.40;98.20;;;;;;5035059;28;20522;-78
2021/01/04 02:52:18;;;;;;;1.67;1.40;;;2.40;98.20;;;;;;5027480;28;20935;-78
2021/01/04 02:54:50;;;;;;;1.60;1.50;;;2.40;98.20;;;;;;5029796;28;20495;-78
2021/01/04 02:57:24;;;;;;;1.63;1.50;;;2.40;98.20;;;;;;5035094;28;20503;-79
2021/01/04 02:59:52;;;;;;;1.70;1.50;;;2.40;98.20;;;;;;5027011;28;20514;-79
2021/01/04 03:02:29;;;;;;;1.70;1.50;;;2.40;98.20;;;;;;5028857;28;20515;-78
2021/01/04 03:04:55;;;;;;;1.90;1.80;;;2.40;98.20;;;;;;5031193;28;20549;-79
2021/01/04 03:07:24;;;;;;;1.60;1.40;;;2.40;98.20;;;;;;5035077;28;20471;-79
2021/01/04 03:09:55;;;;;;;1.70;1.60;;;2.40;98.20;;;;;;5034497;28;20511;-79
2021/01/04 03:12:24;;;;;;;1.70;1.60;;;2.40;98.20;;;;;;5035571;28;20908;-79
2021/01/04 03:15:10;;;;;;;1.70;1.60;;;2.40;98.20;;;;;;5033233;28;20495;-78
2021/01/04 03:17:48;;;;;;;1.70;1.57;;;2.40;98.20;;;;;;5031001;28;20978;-80
2021/01/04 03:20:18;;;;;;;1.70;1.60;;;2.40;98.20;;;;;;5041247;28;20559;-78
2021/01/04 03:22:47;;;;;;;1.67;1.50;;;2.40;98.20;;;;;;5031201;28;20487;-79
2021/01/04 03:25:18;;;;;;;1.60;1.43;;;2.40;98.20;;;;;;5027877;28;20488;-79
2021/01/04 03:27:44;;;;;;;1.67;1.47;;;2.40;98.20;;;;;;5031169;28;20554;-80
2021/01/04 03:30:12;;;;;;;1.70;1.50;;;2.40;98.20;;;;;;5032829;28;20511;-79
2021/01/04 03:32:39;;;;;;;1.67;1.50;;;2.40;98.20;;;;;;5025677;28;21120;-78
2021/01/04 03:35:08;;;;;;;1.70;1.50;;;2.40;98.20;;;;;;5033854;28;21227;-78
2021/01/04 03:37:34;;;;;;;1.70;1.50;;;2.40;98.20;;;;;;5032763;28;20530;-79
2021/01/04 03:40:00;;;;;;;1.70;1.60;;;2.40;98.20;;;;;;5031024;28;20483;-78
2021/01/04 03:42:28;;;;;;;1.67;1.47;;;2.40;98.20;;;;;;5033727;28;20941;-79
2021/01/04 03:44:54;;;;;;;1.60;1.40;;;2.40;98.20;;;;;;5025028;28;20460;-79
2021/01/04 03:47:20;;;;;;;1.80;1.70;;;2.40;98.20;;;;;;5031151;28;20463;-78
2021/01/04 03:49:47;;;;;;;1.63;1.40;;;2.40;98.20;;;;;;5034885;28;20514;-78
2021/01/04 03:52:13;;;;;;;1.73;1.63;;;2.40;98.20;;;;;;5039418;28;20550;-78
2021/01/04 03:54:42;;;;;;;1.67;1.40;;;2.40;98.20;;;;;;5032332;28;20981;-78
2021/01/04 03:57:09;;;;;;;1.70;1.50;;;2.40;98.20;;;;;;5034176;28;21113;-79
2021/01/04 03:59:36;;;;;;;1.67;1.53;;;2.40;98.20;;;;;;5033497;28;20553;-79
2021/01/04 04:02:04;;;;;;;1.70;1.50;;;2.40;98.20;;;;;;5033915;28;20521;-78
2021/01/04 04:04:31;;;;;;;1.70;1.40;;;2.40;98.20;;;;;;5033454;28;20974;-78
2021/01/04 04:06:57;;;;;;;1.60;1.40;;;2.40;98.20;;;;;;5032894;28;20484;-78
2021/01/04 04:09:24;;;;;;;1.63;1.40;;;2.40;98.20;;;;;;5031823;28;20507;-77
2021/01/04 04:11:51;;;;;;;1.70;1.60;;;2.40;98.20;;;;;;5016779;28;20832;-79
2021/01/04 04:14:18;;;;;;;1.77;1.67;;;2.40;98.20;;;;;;5032360;28;20459;-78
2021/01/04 04:16:48;;;;;;;1.63;1.40;;;2.40;98.20;;;;;;5033956;28;20464;-78
2021/01/04 04:19:15;;;;;;;1.70;1.50;;;2.40;98.20;;;;;;5038645;28;20511;-79
2021/01/04 04:21:41;;;;;;;1.60;1.40;;;2.40;98.20;;;;;;5034337;28;20463;-77
2021/01/04 04:24:08;;;;;;;1.63;1.40;;;2.40;98.20;;;;;;5033638;28;20483;-79
2021/01/04 04:26:35;;;;;;;1.67;1.40;;;2.40;98.20;;;;;;5033649;28;20468;-78
2021/01/04 04:29:01;;;;;;;1.60;1.50;;;2.40;98.20;;;;;;5024484;28;20464;-79
2021/01/04 04:31:28;;;;;;;1.70;1.57;;;2.40;98.20;;;;;;5032902;28;20777;-79
2021/01/04 04:33:55;;;;;;;1.63;1.50;;;2.40;98.20;;;;;;5027381;28;21109;-79
2021/01/04 04:36:23;;;;;;;1.67;1.50;;;2.40;98.20;;;;;;5033797;28;21577;-79
2021/01/04 04:38:51;;;;;;;1.63;1.40;;;2.40;98.20;;;;;;5032112;28;20503;-80
2021/01/04 04:41:26;;;;;;;1.70;1.50;;;2.40;98.20;;;;;;5032890;28;20488;-78
2021/01/04 04:44:00;;;;;;;1.60;1.40;;;2.40;98.20;;;;;;5028155;28;20643;-78
2021/01/04 04:46:41;;;;;;;1.60;1.40;;;2.40;98.20;;;;;;5032650;28;20465;-79
2021/01/04 04:49:18;;;;;;;1.70;1.50;;;2.40;98.20;;;;;;5032499;28;20515;-80
2021/01/04 04:52:03;;;;;;;1.60;1.30;;;2.40;98.20;;;;;;5035257;28;20904;-78
2021/01/04 04:54:41;;;;;;;1.60;1.40;;;2.40;98.20;;;;;;5033473;28;20455;-79
2021/01/04 04:57:44;;;;;;;1.60;1.40;;;2.40;98.20;;;;;;5030475;28;20802;-79
2021/01/04 05:00:25;;;;;;;1.60;1.40;;;2.40;98.20;;;;;;5027363;28;20569;-76
2021/01/04 05:03:00;;;;;;;1.60;1.40;;;2.40;98.20;;;;;;5027723;28;20966;-80
2021/01/04 05:05:34;;;;;;;1.60;1.40;;;2.40;98.20;;;;;;5027718;28;20463;-80
2021/01/04 05:08:10;;;;;;;1.70;1.50;;;2.40;98.20;;;;;;5028543;28;20467;-79
2021/01/04 05:10:39;;;;;;;1.70;1.50;;;2.40;98.20;;;;;;5028529;28;20467;-79
2021/01/04 05:13:16;;;;;;;1.60;1.40;;;2.40;98.20;;;;;;5033632;28;20490;-79
2021/01/04 05:15:50;;;;;;;1.60;1.50;;;2.40;98.20;;;;;;5029574;28;20468;-78
2021/01/04 05:18:46;;;;;;;1.70;1.57;;;2.40;98.20;;;;;;5031314;28;20499;-78
2021/01/04 05:21:44;;;;;;;1.63;1.40;;;2.40;98.20;;;;;;5031465;28;20495;-78
2021/01/04 05:24:39;;;;;;;1.70;1.50;;;2.40;98.20;;;;;;5027559;28;20502;-79
2021/01/04 05:27:32;;;;;;;1.60;1.50;;;2.40;98.20;;;;;;5029625;28;20979;-78
2021/01/04 05:30:29;;;;;;;1.67;1.50;;;2.40;98.20;;;;;;5034994;28;20601;-77
2021/01/04 05:33:23;;;;;;;1.60;1.50;;;2.40;98.20;;;;;;5030921;28;20464;-79
2021/01/04 05:35:52;;;;;;;1.67;1.43;;;2.40;98.20;;;;;;5035712;28;20498;-77
2021/01/04 05:38:28;;;;;;;1.63;1.40;;;2.40;98.20;;;;;;5034408;28;20479;-77
2021/01/04 05:41:21;;;;;;;1.70;1.60;;;2.40;98.20;;;;;;5033298;28;20515;-78
2021/01/04 05:44:01;;;;;;;1.70;1.50;;;2.40;98.20;;;;;;5023929;28;20472;-78
2021/01/04 05:46:32;;;;;;;1.70;1.50;;;2.40;98.20;;;;;;5028543;28;20495;-78
2021/01/04 05:49:09;;;;;;;1.63;1.40;;;2.40;98.20;;;;;;5035606;28;20464;-78
2021/01/04 05:51:39;;;;;;;1.67;1.40;;;2.40;98.20;;;;;;5031226;28;20502;-77
2021/01/04 05:54:06;;;;;;;1.63;1.43;;;2.50;98.20;;;;;;5032813;28;20524;-78
2021/01/04 05:56:34;;;;;;;1.60;1.50;;;2.50;98.20;;;;;;5024968;28;20506;-78
2021/01/04 05:59:10;;;;;;;1.63;1.50;;;2.50;98.20;;;;;;5033727;28;20487;-79
2021/01/04 06:01:38;;;;;;;1.63;1.43;;;2.50;98.20;;;;;;5029909;28;20605;-78
2021/01/04 06:04:06;;;;;;;1.63;1.47;;;2.50;98.20;;;;;;5031226;28;20970;-78
2021/01/04 06:06:38;;;;;;;1.60;1.50;;;2.40;98.20;;;;;;5030407;28;20459;-78
2021/01/04 06:09:09;;;;;;;1.67;1.50;;;2.40;98.20;;;;;;5032070;28;20919;-78
2021/01/04 06:11:46;;;;;;;1.60;1.47;;;2.50;98.20;;;;;;5028032;28;20467;-78
2021/01/04 06:14:13;;;;;;;1.63;1.40;;;2.40;98.20;;;;;;5028206;28;20467;-78
2021/01/04 06:16:44;;;;;;;1.67;1.50;;;2.50;98.20;;;;;;5028836;28;20467;-78
2021/01/04 06:19:14;;;;;;;1.70;1.60;;;2.50;98.20;;;;;;5031615;28;20991;-78
2021/01/04 06:21:49;;;;;;;1.60;1.50;;;2.50;98.20;;;;;;5032297;28;20509;-78
2021/01/04 06:24:38;;;;;;;1.60;1.50;;;2.50;98.20;;;;;;5031525;28;20471;-79
2021/01/04 06:27:13;;;;;;;1.63;1.47;;;2.50;98.20;;;;;;5026335;28;20523;-78
2021/01/04 06:29:43;;;;;;;1.60;1.50;;;2.50;98.20;;;;;;5022202;28;20556;-78
2021/01/04 06:32:23;;;;;;;1.70;1.50;;;2.50;98.20;;;;;;5029801;28;20471;-78
2021/01/04 06:34:54;;;;;;;1.60;1.50;;;2.50;98.20;;;;;;5031044;28;20451;-78
2021/01/04 06:37:24;;;;;;;1.60;1.40;;;2.50;98.20;;;;;;5032157;28;20487;-78
2021/01/04 06:40:02;;;;;;;1.70;1.60;;;2.50;98.20;;;;;;5030347;28;20494;-78
2021/01/04 06:42:35;;;;;;;1.63;1.50;;;2.50;98.20;;;;;;5027750;28;20493;-78
2021/01/04 06:45:19;;;;;;;1.63;1.50;;;2.50;98.20;;;;;;5030848;28;20498;-78
2021/01/04 06:47:52;;;;;;;1.70;1.53;;;2.50;98.20;;;;;;5031083;28;20468;-78
2021/01/04 06:50:26;;;;;;;1.63;1.40;;;2.50;98.20;;;;;;5037789;28;20830;-78
2021/01/04 06:53:17;;;;;;;1.63;1.50;;;2.50;98.20;;;;;;5031082;28;20463;-77
2021/01/04 06:56:20;;;;;;;1.63;1.40;;;2.50;98.20;;;;;;5030444;28;20974;-78
2021/01/04 06:59:09;;;;;;;1.63;1.47;;;2.50;98.20;;;;;;5028757;28;20731;-77
2021/01/04 07:02:27;;;;;;;1.70;1.60;;;2.50;98.20;;;;;;5028163;28;20488;-78
2021/01/04 07:05:35;;;;;;;1.60;1.40;;;2.50;98.20;;;;;;5030836;28;20498;-79
2021/01/04 07:08:39;;;;;;;1.70;1.50;;;2.50;98.20;;;;;;5028251;28;20510;-78
2021/01/04 07:11:21;;;;;;;1.63;1.50;;;2.50;98.20;;;;;;5029624;28;20486;-77
2021/01/04 07:14:08;;;;;;;1.60;1.50;;;2.50;98.20;;;;;;5031871;28;20543;-78
2021/01/04 07:16:59;;;;;;;1.60;1.40;;;2.50;98.20;;;;;;5028041;28;20455;-78
2021/01/04 07:20:03;;;;;;;1.60;1.50;;;2.50;98.20;;;;;;5034221;28;20515;-78
2021/01/04 07:22:41;;;;;;;1.67;1.50;;;2.50;98.20;;;;;;4942941;29;20582;-78
2021/01/04 07:25:20;;;;;;;1.60;1.50;;;2.50;98.20;;;;;;4947554;29;20515;-78
2021/01/04 07:27:51;;;;;;;1.70;1.60;;;2.50;98.20;;;;;;4998616;28;20463;-77
2021/01/04 07:30:33;;;;;;;1.70;1.50;;;2.50;98.20;;;;;;5030392;28;20503;-77
2021/01/04 07:33:04;;;;;;;1.70;1.60;;;2.50;98.20;;;;;;5025240;28;20456;-77
2021/01/04 07:35:36;;;;;;;1.70;1.60;;;2.50;98.20;;;;;;5025901;28;20503;-77
2021/01/04 07:38:25;;;;;;;1.70;1.60;;;2.50;98.20;;;;;;5027560;28;20836;-77
2021/01/04 07:41:19;;;;;;;1.63;1.50;;;2.50;98.20;;;;;;5031365;28;20503;-76
2021/01/04 07:44:22;;;;;;;1.60;1.40;;;2.50;98.20;;;;;;5027780;28;20461;-78
2021/01/04 07:47:29;;;;;;;1.67;1.50;;;2.50;98.20;;;;;;5032257;28;20455;-78
2021/01/04 07:50:45;;;;;;;1.70;1.50;;;2.60;98.20;;;;;;5036773;28;20602;-77
2021/01/04 07:53:43;;;;;;;1.63;1.50;;;2.60;98.20;;;;;;5028057;28;20460;-77
2021/01/04 07:56:50;;;;;;;1.70;1.57;;;2.60;98.20;;;;;;5028057;28;20464;-78
2021/01/04 07:59:52;;;;;;;1.60;1.40;;;2.60;98.20;;;;;;5004197;28;20894;-77
2021/01/04 08:03:03;;;;;;;1.67;1.50;;;2.60;98.20;;;;;;5025458;28;20455;-78
2021/01/04 08:05:44;;;;;;;1.63;1.40;;;2.60;98.20;;;;;;5029162;28;20474;-78
2021/01/04 08:08:33;;;;;;;1.60;1.40;;;2.70;98.20;;;;;;5030452;28;20474;-77
2021/01/04 08:11:37;;;;;;;1.70;1.50;;;2.70;98.20;;;;;;5025614;28;20472;-77
2021/01/04 08:14:40;;;;;;;1.77;1.67;;;2.70;98.20;;;;;;5027477;28;20459;-77
2021/01/04 08:17:14;;;;;;;1.80;1.70;;;2.70;98.20;;;;;;5003391;28;20631;-77
2021/01/04 08:19:45;;;;;;;1.67;1.40;;;2.70;98.20;;;;;;5025971;28;20482;-77
2021/01/04 08:22:38;;;;;;;1.60;1.40;;;2.70;98.20;;;;;;5027294;28;20456;-76
2021/01/04 08:25:11;;;;;;;1.70;1.50;;;2.70;98.20;;;;;;5025536;28;20473;-77
2021/01/04 08:27:57;;;;;;;1.60;1.43;;;2.70;98.20;;;;;;5026060;28;20475;-76
2021/01/04 08:30:32;;;;;;;1.60;1.50;;;2.70;98.20;;;;;;5024795;28;20531;-77
2021/01/04 08:33:05;;;;;;;1.67;1.50;;;2.70;98.20;;;;;;5027396;28;20874;-77
2021/01/04 08:35:44;;;;;;;1.70;1.50;;;2.70;98.20;;;;;;5028970;28;20468;-78
2021/01/04 08:38:20;;;;;;;1.70;1.60;;;2.70;98.20;;;;;;5027699;28;20490;-77
2021/01/04 08:40:57;;;;;;;1.67;1.50;;;2.70;98.20;;;;;;5028185;28;20499;-77
2021/01/04 08:43:33;;;;;;;1.60;1.50;;;2.70;98.20;;;;;;5026966;28;20502;-77
2021/01/04 08:46:16;;;;;;;1.63;1.40;;;2.70;98.20;;;;;;5029478;28;20467;-77
2021/01/04 08:48:48;;;;;;;1.60;1.40;;;2.70;98.20;;;;;;5026204;28;20483;-76
2021/01/04 08:51:37;;;;;;;1.63;1.50;;;2.70;98.20;;;;;;5031622;28;20641;-76
2021/01/04 08:54:31;;;;;;;1.70;1.50;;;2.80;98.20;;;;;;5025335;28;20474;-77
2021/01/04 08:57:15;;;;;;;1.70;1.40;;;2.80;98.20;;;;;;5027276;28;20473;-77
2021/01/04 08:59:55;;;;;;;1.70;1.60;;;2.80;98.20;;;;;;5027904;28;20930;-76
2021/01/04 09:02:33;;;;;;;1.63;1.50;;;2.80;98.20;;;;;;5030768;28;20467;-77
2021/01/04 09:05:20;;;;;;;2.27;2.07;;;2.80;98.20;;;;;;5028496;28;20495;-77
2021/01/04 09:07:50;;;;;;;1.60;1.47;;;2.80;98.20;;;;;;5029013;28;20993;-77
2021/01/04 09:10:21;;;;;;;1.70;1.60;;;2.80;98.20;;;;;;5034156;28;20994;-76
2021/01/04 09:12:52;;;;;;;1.60;1.43;;;2.80;98.20;;;;;;5033662;28;20472;-77
2021/01/04 09:15:31;;;;;;;1.60;1.40;;;2.80;98.20;;;;;;5031444;28;20971;-77
2021/01/04 09:18:29;;;;;;;4.07;3.73;;;2.80;98.20;;;;;;5029763;28;20915;-77
2021/01/04 09:21:00;;;;;;;2.70;2.50;;;2.90;98.20;;;;;;5036220;28;20509;-77
2021/01/04 09:23:33;;;;;;;1.60;1.47;;;2.90;98.20;;;;;;5025049;28;20518;-77
2021/01/04 09:26:15;;;;;;;1.70;1.57;;;2.90;98.20;;;;;;5032128;28;20456;-77
2021/01/04 09:29:01;;;;;;;1.60;1.40;;;2.90;98.20;;;;;;5032716;28;20459;-77
2021/01/04 09:31:28;;;;;;;1.60;1.40;;;2.90;98.20;;;;;;5030976;28;20927;-77
2021/01/04 09:34:01;;;;;;;1.60;1.50;;;2.90;98.20;;;;;;5031049;28;20470;-77
2021/01/04 09:36:29;;;;;;;1.70;1.60;;;2.90;98.20;;;;;;5028051;28;20802;-77
2021/01/04 09:39:08;;;;;;;1.70;1.40;;;2.90;98.20;;;;;;5031214;28;20706;-77
2021/01/04 09:41:36;;;;;;;1.70;1.50;;;2.90;98.20;;;;;;5029425;28;20494;-76
2021/01/04 09:44:04;;;;;;;1.63;1.40;;;2.90;98.20;;;;;;5029440;28;20459;-76
2021/01/04 09:46:43;;;;;;;1.70;1.40;;;3.00;98.20;;;;;;5031989;28;20467;-76
2021/01/04 09:49:15;;;;;;;1.70;1.60;;;3.00;98.20;;;;;;5036679;28;20867;-77
2021/01/04 09:51:52;;;;;;;1.67;1.40;;;3.00;98.20;;;;;;5036169;28;20467;-76
2021/01/04 09:54:25;;;;;;;1.67;1.40;;;3.00;98.20;;;;;;5032788;28;21006;-77
2021/01/04 09:56:59;;;;;;;1.67;1.40;;;3.00;98.20;;;;;;5032206;28;20494;-77
2021/01/04 09:59:27;;;;;;;1.60;1.40;;;3.00;98.20;;;;;;5029963;28;20479;-76
2021/01/04 10:01:58;;;;;;;1.73;1.50;;;3.00;98.20;;;;;;5031368;28;20549;-77
2021/01/04 10:04:31;;;;;;;1.70;1.53;;;3.00;98.20;;;;;;5033663;28;20463;-77
2021/01/04 10:07:03;;;;;;;1.70;1.40;;;3.00;98.20;;;;;;5029245;28;20563;-77
2021/01/04 10:09:36;;;;;;;1.63;1.43;;;3.00;98.20;;;;;;5028615;28;20480;-77
2021/01/04 10:12:05;;;;;;;1.70;1.47;;;3.00;98.20;;;;;;5031215;28;20582;-77
2021/01/04 10:14:33;;;;;;;1.70;1.50;;;3.10;98.20;;;;;;5028648;28;20541;-77
2021/01/04 10:17:02;;;;;;;1.60;1.40;;;3.10;98.20;;;;;;5030731;28;20472;-76
2021/01/04 10:19:33;;;;;;;3.10;2.43;;;3.10;98.20;;;;;;5028461;28;20511;-76
2021/01/04 10:22:05;;;;;;;1.67;1.40;;;3.10;98.20;;;;;;5030568;28;20787;-77
2021/01/04 10:24:38;;;;;;;1.70;1.50;;;3.10;98.20;;;;;;5026563;28;20474;-76
2021/01/04 10:27:06;;;;;;;1.60;1.40;;;3.10;98.20;;;;;;5026701;28;20471;-77
2021/01/04 10:29:40;;;;;;;1.70;1.40;;;3.10;98.20;;;;;;5030491;28;20491;-77
2021/01/04 10:32:11;;;;;;;1.70;1.47;;;3.10;98.20;;;;;;5030252;28;20556;-76
2021/01/04 10:34:41;;;;;;;1.60;1.40;;;3.10;98.20;;;;;;5028418;28;20550;-77
2021/01/04 10:37:26;;;;;;;1.67;1.40;;;3.10;98.20;;;;;;5030714;28;20464;-77
2021/01/04 10:40:00;;;;;;;1.70;1.50;;;3.10;98.20;;;;;;5029488;28;20522;-77
2021/01/04 10:42:27;;;;;;;1.70;1.50;;;3.10;98.20;;;;;;5029509;28;20470;-76
2021/01/04 10:45:05;;;;;;;1.70;1.40;;;3.10;98.20;;;;;;5030135;28;20484;-77
2021/01/04 10:47:54;;;;;;;1.70;1.60;;;3.10;98.20;;;;;;5031038;28;20474;-77
2021/01/04 10:50:32;;;;;;;1.70;1.40;;;3.10;98.20;;;;;;5033959;28;20488;-77
2021/01/04 10:53:02;;;;;;;1.77;1.67;;;3.10;98.20;;;;;;5031180;28;20499;-76
2021/01/04 10:55:33;;;;;;;1.70;1.60;;;3.00;98.20;;;;;;5027791;28;20958;-77
2021/01/04 10:58:11;;;;;;;1.63;1.40;;;3.00;98.20;;;;;;5032150;28;20456;-77
2021/01/04 11:00:48;;;;;;;1.67;1.40;;;3.00;98.20;;;;;;5029777;28;20586;-77
2021/01/04 11:03:18;;;;;;;1.70;1.50;;;3.00;98.20;;;;;;5028827;28;20799;-77
2021/01/04 11:05:48;;;;;;;1.67;1.50;;;3.10;98.20;;;;;;5030828;28;20470;-77
2021/01/04 11:08:27;;;;;;;1.70;1.50;;;3.10;98.20;;;;;;5027813;28;20468;-77
2021/01/04 11:10:59;;;;;;;1.87;1.77;;;3.10;98.20;;;;;;5027986;28;20482;-77
2021/01/04 11:13:32;;;;;;;1.70;1.50;;;3.00;98.20;;;;;;5030921;28;20544;-76
2021/01/04 11:16:13;;;;;;;1.60;1.40;;;3.00;98.20;;;;;;5031048;28;20468;-77
2021/01/04 11:19:01;;;;;;;1.70;1.60;;;3.10;98.20;;;;;;5026687;28;20471;-77
2021/01/04 11:21:49;;;;;;;1.63;1.40;;;3.10;98.20;;;;;;5027959;28;20859;-77
2021/01/04 11:24:17;;;;;;;1.60;1.40;;;3.10;98.20;;;;;;5020629;28;20468;-77
2021/01/04 11:26:48;;;;;;;1.67;1.47;;;3.00;98.20;;;;;;5025873;28;21230;-78
2021/01/04 11:29:16;;;;;;;1.70;1.50;;;3.10;98.20;;;;;;5028814;28;20496;-77
2021/01/04 11:31:43;;;;;;;1.70;1.40;;;3.10;98.20;;;;;;5031780;28;20471;-78
2021/01/04 11:34:10;;;;;;;1.67;1.50;;;3.10;98.20;;;;;;5019264;28;21524;-77
2021/01/04 11:36:37;;;;;;;1.70;1.50;;;3.10;98.20;;;;;;5022477;28;20527;-77
2021/01/04 11:39:04;;;;;;;1.80;1.70;;;3.10;98.20;;;;;;5029416;28;20486;-76
2021/01/04 11:41:32;;;;;;;1.70;1.53;;;3.00;98.20;;;;;;5026893;28;20491;-77
2021/01/04 11:44:04;;;;;;;1.70;1.50;;;3.10;98.20;;;;;;5026727;28;20475;-76
2021/01/04 11:46:38;;;;;;;1.70;1.40;;;3.10;98.20;;;;;;5027214;28;20522;-77
2021/01/04 11:49:05;;;;;;;1.67;1.40;;;3.10;98.20;;;;;;5031231;28;20548;-77
2021/01/04 11:51:33;;;;;;;1.63;1.50;;;3.00;98.20;;;;;;5030739;28;20601;-77
2021/01/04 11:54:07;;;;;;;1.67;1.40;;;3.00;98.20;;;;;;5028214;28;20802;-77
2021/01/04 11:56:34;;;;;;;1.60;1.30;;;3.00;98.20;;;;;;5029086;28;20455;-76
2021/01/04 11:59:03;;;;;;;1.60;1.40;;;3.00;98.20;;;;;;5031146;28;20487;-77
2021/01/04 12:01:30;;;;;;;1.70;1.60;;;3.00;98.20;;;;;;5034267;28;20484;-76
2021/01/04 12:03:56;;;;;;;1.60;1.40;;;3.00;98.20;;;;;;5029700;28;20459;-76
2021/01/04 12:06:23;;;;;;;1.70;1.60;;;3.00;98.20;;;;;;5034776;28;20498;-76
2021/01/04 12:08:49;;;;;;;1.70;1.50;;;3.00;98.20;;;;;;5033038;28;20475;-76
2021/01/04 12:11:16;;;;;;;1.67;1.47;;;3.10;98.20;;;;;;5029452;28;20996;-76
2021/01/04 12:13:42;;;;;;;1.70;1.50;;;3.10;98.20;;;;;;5032114;28;20739;-76
2021/01/04 12:16:10;;;;;;;1.60;1.40;;;3.00;98.20;;;;;;5030966;28;20691;-77
2021/01/04 12:18:37;;;;;;;1.70;1.50;;;3.10;98.20;;;;;;5034131;28;20495;-76
2021/01/04 12:21:04;;;;;;;1.70;1.40;;;3.10;98.20;;;;;;5030989;28;20523;-76
2021/01/04 12:23:31;;;;;;;1.70;1.60;;;3.10;98.20;;;;;;5033859;28;20899;-76
2021/01/04 12:25:57;;;;;;;1.70;1.57;;;3.10;98.20;;;;;;5033660;28;20467;-76
2021/01/04 12:28:24;;;;;;;1.60;1.40;;;3.10;98.20;;;;;;5031830;28;20468;-77
2021/01/04 12:30:51;;;;;;;1.67;1.40;;;3.10;98.20;;;;;;5039342;28;20483;-76
2021/01/04 12:33:19;;;;;;;1.70;1.50;;;3.10;98.20;;;;;;5035399;28;20476;-76
2021/01/04 12:35:45;;;;;;;1.83;1.73;;;3.10;98.20;;;;;;5033431;28;20758;-76
2021/01/04 12:38:12;;;;;;;1.67;1.43;;;3.20;98.20;;;;;;5030172;28;20476;-76
2021/01/04 12:40:38;;;;;;;1.70;1.50;;;3.20;98.20;;;;;;5039539;28;20906;-77
2021/01/04 12:43:05;;;;;;;1.70;1.50;;;3.20;98.20;;;;;;5034107;28;20483;-76
2021/01/04 12:45:32;;;;;;;2.40;2.20;;;3.20;98.20;;;;;;5043084;28;20482;-75
2021/01/04 12:47:59;;;;;;;1.70;1.60;;;3.10;98.20;;;;;;5033884;28;20489;-76
2021/01/04 12:50:26;;;;;;;1.70;1.47;;;3.10;98.20;;;;;;5043947;28;20483;-77
2021/01/04 12:52:56;;;;;;;1.60;1.50;;;3.10;98.20;;;;;;5035372;28;20467;-76
2021/01/04 12:55:38;;;;;;;1.70;1.47;;;3.20;98.20;;;;;;5030686;28;20738;-76
2021/01/04 12:58:08;;;;;;;1.70;1.40;;;3.20;98.20;;;;;;5021791;28;20971;-77
2021/01/04 13:00:41;;;;;;;1.67;1.40;;;3.20;98.20;;;;;;5026851;28;21006;-78
2021/01/04 13:03:11;;;;;;;1.70;1.53;;;3.20;98.20;;;;;;5026753;28;20475;-77
2021/01/04 13:05:39;;;;;;;1.70;1.60;;;3.20;98.20;;;;;;5027618;28;20478;-77
2021/01/04 13:08:11;;;;;;;1.60;1.40;;;3.20;98.20;;;;;;5024881;28;20517;-77
2021/01/04 13:10:38;;;;;;;1.63;1.40;;;3.20;98.20;;;;;;5028846;28;20499;-77
2021/01/04 13:13:06;;;;;;;1.67;1.40;;;3.20;98.20;;;;;;5029656;28;20487;-77
2021/01/04 13:15:41;;;;;;;1.60;1.40;;;3.30;98.20;;;;;;5031433;28;20513;-78
2021/01/04 13:18:08;;;;;;;1.67;1.40;;;3.30;98.20;;;;;;5029903;28;20462;-75
2021/01/04 13:20:35;;;;;;;1.67;1.50;;;3.30;98.20;;;;;;5034710;28;20503;-76
2021/01/04 13:23:02;;;;;;;1.70;1.47;;;3.30;98.20;;;;;;5029951;28;20540;-77
2021/01/04 13:25:33;;;;;;;1.63;1.40;;;3.30;98.20;;;;;;5029462;28;20897;-77
2021/01/04 13:28:03;;;;;;;1.63;1.40;;;3.40;98.20;;;;;;5026440;28;20475;-75
2021/01/04 13:30:33;;;;;;;1.80;1.70;;;3.40;98.20;;;;;;5032611;28;20483;-77
2021/01/04 13:33:01;;;;;;;1.70;1.57;;;3.40;98.20;;;;;;5027842;28;20612;-78
2021/01/04 13:35:33;;;;;;;1.60;1.40;;;3.40;98.20;;;;;;5026859;28;20486;-77
2021/01/04 13:38:00;;;;;;;1.67;1.47;;;3.40;98.20;;;;;;5030960;28;20483;-78
2021/01/04 13:40:30;;;;;;;1.63;1.40;;;3.40;98.20;;;;;;5026512;28;20545;-76
2021/01/04 13:42:57;;;;;;;1.60;1.30;;;3.40;98.20;;;;;;5029334;28;20470;-77
2021/01/04 13:45:24;;;;;;;1.67;1.43;;;3.40;98.20;;;;;;5025606;28;20496;-78